sensor_id;sensor_type;location;lat;lon;timestamp;temperature;humidity
10968;DHT22;5536;49.602;10.980;2023-12-20T00:01:17;5.90;99.90
10968;DHT22;5536;49.602;10.980;2023-12-20T00:03:44;5.90;99.90
10968;DHT22;5536;49.602;10.980;2023-12-20T00:06:11;5.80;99.90
10968;DHT22;5536;49.602;10.980;2023-12-20T00:08:38;5.80;99.90
10968;DHT22;5536;49.602;10.980;2023-12-20T00:11:05;5.80;99.90
10968;DHT22;5536;49.602;10.980;2023-12-20T00:13:32;5.80;99.90
10968;DHT22;5536;49.602;10.980;2023-12-20T00:16:00;5.80;99.90
10968;DHT22;5536;49.602;10.980;2023-12-20T00:18:27;5.70;99.90
10968;DHT22;5536;49.602;10.980;2023-12-20T00:20:54;5.70;99.90
10968;DHT22;5536;49.602;10.980;2023-12-20T00:23:21;5.70;99.90
10968;DHT22;5536;49.602;10.980;2023-12-20T00:25:48;5.70;99.90
10968;DHT22;5536;49.602;10.980;2023-12-20T00:28:15;5.70;99.90
10968;DHT22;5536;49.602;10.980;2023-12-20T00:30:42;5.70;99.90
10968;DHT22;5536;49.602;10.980;2023-12-20T00:33:11;5.70;99.90
10968;DHT22;5536;49.602;10.980;2023-12-20T00:35:38;5.70;99.90
10968;DHT22;5536;49.602;10.980;2023-12-20T00:38:05;5.80;99.90
10968;DHT22;5536;49.602;10.980;2023-12-20T00:40:32;5.80;99.90
10968;DHT22;5536;49.602;10.980;2023-12-20T00:42:59;5.70;99.90
10968;DHT22;5536;49.602;10.980;2023-12-20T00:45:27;5.80;99.90
10968;DHT22;5536;49.602;10.980;2023-12-20T00:47:54;5.80;99.90
10968;DHT22;5536;49.602;10.980;2023-12-20T00:50:22;5.80;99.90
10968;DHT22;5536;49.602;10.980;2023-12-20T00:52:49;5.80;99.90
10968;DHT22;5536;49.602;10.980;2023-12-20T00:55:16;5.70;99.90
10968;DHT22;5536;49.602;10.980;2023-12-20T00:57:43;5.80;99.90
10968;DHT22;5536;49.602;10.980;2023-12-20T01:00:11;5.70;99.90
10968;DHT22;5536;49.602;10.980;2023-12-20T01:02:39;5.80;99.90
10968;DHT22;5536;49.602;10.980;2023-12-20T01:05:06;5.80;99.90
10968;DHT22;5536;49.602;10.980;2023-12-20T01:07:36;5.70;99.90
10968;DHT22;5536;49.602;10.980;2023-12-20T01:10:03;5.70;99.90
10968;DHT22;5536;49.602;10.980;2023-12-20T01:12:32;5.70;99.90
10968;DHT22;5536;49.602;10.980;2023-12-20T01:15:00;5.70;99.90
10968;DHT22;5536;49.602;10.980;2023-12-20T01:17:26;5.70;99.90
10968;DHT22;5536;49.602;10.980;2023-12-20T01:19:53;5.60;99.90
10968;DHT22;5536;49.602;10.980;2023-12-20T01:22:21;5.60;99.90
10968;DHT22;5536;49.602;10.980;2023-12-20T01:24:49;5.60;99.90
10968;DHT22;5536;49.602;10.980;2023-12-20T01:27:16;5.60;99.90
10968;DHT22;5536;49.602;10.980;2023-12-20T01:29:44;5.60;99.90
10968;DHT22;5536;49.602;10.980;2023-12-20T01:32:10;5.60;99.90
10968;DHT22;5536;49.602;10.980;2023-12-20T01:34:38;5.60;99.90
10968;DHT22;5536;49.602;10.980;2023-12-20T01:37:05;5.60;99.90
10968;DHT22;5536;49.602;10.980;2023-12-20T01:39:31;5.50;99.90
10968;DHT22;5536;49.602;10.980;2023-12-20T01:42:00;5.60;99.90
10968;DHT22;5536;49.602;10.980;2023-12-20T01:44:27;5.60;99.90
10968;DHT22;5536;49.602;10.980;2023-12-20T01:46:54;5.50;99.90
10968;DHT22;5536;49.602;10.980;2023-12-20T01:49:22;5.50;99.90
10968;DHT22;5536;49.602;10.980;2023-12-20T01:51:49;5.50;99.90
10968;DHT22;5536;49.602;10.980;2023-12-20T01:54:17;5.50;99.90
10968;DHT22;5536;49.602;10.980;2023-12-20T01:56:46;5.50;99.90
10968;DHT22;5536;49.602;10.980;2023-12-20T01:59:14;5.40;99.90
10968;DHT22;5536;49.602;10.980;2023-12-20T02:01:41;5.40;99.90
10968;DHT22;5536;49.602;10.980;2023-12-20T02:04:08;5.40;99.90
10968;DHT22;5536;49.602;10.980;2023-12-20T02:06:36;5.40;99.90
10968;DHT22;5536;49.602;10.980;2023-12-20T02:09:05;5.40;99.90
10968;DHT22;5536;49.602;10.980;2023-12-20T02:11:33;5.40;99.90
10968;DHT22;5536;49.602;10.980;2023-12-20T02:14:01;5.30;99.90
10968;DHT22;5536;49.602;10.980;2023-12-20T02:16:29;5.30;99.90
10968;DHT22;5536;49.602;10.980;2023-12-20T02:18:57;5.30;99.90
10968;DHT22;5536;49.602;10.980;2023-12-20T02:21:32;5.20;99.90
10968;DHT22;5536;49.602;10.980;2023-12-20T02:23:59;5.20;99.90
10968;DHT22;5536;49.602;10.980;2023-12-20T02:26:26;5.20;99.90
10968;DHT22;5536;49.602;10.980;2023-12-20T02:28:53;5.20;99.90
10968;DHT22;5536;49.602;10.980;2023-12-20T02:31:21;5.20;99.90
10968;DHT22;5536;49.602;10.980;2023-12-20T02:33:48;5.10;99.90
10968;DHT22;5536;49.602;10.980;2023-12-20T02:36:15;5.10;99.90
10968;DHT22;5536;49.602;10.980;2023-12-20T02:38:44;5.10;99.90
10968;DHT22;5536;49.602;10.980;2023-12-20T02:41:11;5.10;99.90
10968;DHT22;5536;49.602;10.980;2023-12-20T02:43:37;5.10;99.90
10968;DHT22;5536;49.602;10.980;2023-12-20T02:46:04;5.10;99.90
10968;DHT22;5536;49.602;10.980;2023-12-20T02:48:31;5.10;99.90
10968;DHT22;5536;49.602;10.980;2023-12-20T02:50:59;5.00;99.90
10968;DHT22;5536;49.602;10.980;2023-12-20T02:53:26;5.00;99.90
10968;DHT22;5536;49.602;10.980;2023-12-20T02:55:55;5.00;99.90
10968;DHT22;5536;49.602;10.980;2023-12-20T02:58:25;5.00;99.90
10968;DHT22;5536;49.602;10.980;2023-12-20T03:00:52;5.00;99.90
10968;DHT22;5536;49.602;10.980;2023-12-20T03:03:19;5.00;99.90
10968;DHT22;5536;49.602;10.980;2023-12-20T03:05:46;4.90;99.90
10968;DHT22;5536;49.602;10.980;2023-12-20T03:11:28;4.90;99.90
10968;DHT22;5536;49.602;10.980;2023-12-20T03:13:55;4.90;99.90
10968;DHT22;5536;49.602;10.980;2023-12-20T03:16:22;4.90;99.90
10968;DHT22;5536;49.602;10.980;2023-12-20T03:18:49;4.90;99.90
10968;DHT22;5536;49.602;10.980;2023-12-20T03:21:16;4.90;99.90
10968;DHT22;5536;49.602;10.980;2023-12-20T03:23:42;4.90;99.90
10968;DHT22;5536;49.602;10.980;2023-12-20T03:26:10;4.80;99.90
10968;DHT22;5536;49.602;10.980;2023-12-20T03:28:38;4.80;99.90
10968;DHT22;5536;49.602;10.980;2023-12-20T03:31:05;4.90;99.90
10968;DHT22;5536;49.602;10.980;2023-12-20T03:33:32;4.80;99.90
10968;DHT22;5536;49.602;10.980;2023-12-20T03:35:59;4.80;99.90
10968;DHT22;5536;49.602;10.980;2023-12-20T03:38:26;4.80;99.90
10968;DHT22;5536;49.602;10.980;2023-12-20T03:40:56;4.80;99.90
10968;DHT22;5536;49.602;10.980;2023-12-20T03:43:23;4.80;99.90
10968;DHT22;5536;49.602;10.980;2023-12-20T03:45:51;4.80;99.90
10968;DHT22;5536;49.602;10.980;2023-12-20T03:48:18;4.80;99.90
10968;DHT22;5536;49.602;10.980;2023-12-20T03:50:46;4.80;99.90
10968;DHT22;5536;49.602;10.980;2023-12-20T03:53:12;4.80;99.90
10968;DHT22;5536;49.602;10.980;2023-12-20T03:55:40;4.70;99.90
10968;DHT22;5536;49.602;10.980;2023-12-20T03:58:07;4.70;99.90
10968;DHT22;5536;49.602;10.980;2023-12-20T04:00:34;4.70;99.90
10968;DHT22;5536;49.602;10.980;2023-12-20T04:03:02;4.70;99.90
10968;DHT22;5536;49.602;10.980;2023-12-20T04:05:29;4.70;99.90
10968;DHT22;5536;49.602;10.980;2023-12-20T04:07:56;4.70;99.90
10968;DHT22;5536;49.602;10.980;2023-12-20T04:10:23;4.70;99.90
10968;DHT22;5536;49.602;10.980;2023-12-20T04:12:50;4.70;99.90
10968;DHT22;5536;49.602;10.980;2023-12-20T04:15:17;4.70;99.90
10968;DHT22;5536;49.602;10.980;2023-12-20T04:17:44;4.70;99.90
10968;DHT22;5536;49.602;10.980;2023-12-20T04:20:12;4.60;99.90
10968;DHT22;5536;49.602;10.980;2023-12-20T04:22:39;4.70;99.90
10968;DHT22;5536;49.602;10.980;2023-12-20T04:25:08;4.70;99.90
10968;DHT22;5536;49.602;10.980;2023-12-20T04:27:35;4.70;99.90
10968;DHT22;5536;49.602;10.980;2023-12-20T04:30:02;4.70;99.90
10968;DHT22;5536;49.602;10.980;2023-12-20T04:32:29;4.70;99.90
10968;DHT22;5536;49.602;10.980;2023-12-20T04:34:57;4.70;99.90
10968;DHT22;5536;49.602;10.980;2023-12-20T04:37:25;4.70;99.90
10968;DHT22;5536;49.602;10.980;2023-12-20T04:39:52;4.70;99.90
10968;DHT22;5536;49.602;10.980;2023-12-20T04:42:19;4.70;99.90
10968;DHT22;5536;49.602;10.980;2023-12-20T04:44:46;4.70;99.90
10968;DHT22;5536;49.602;10.980;2023-12-20T04:47:16;4.70;99.90
10968;DHT22;5536;49.602;10.980;2023-12-20T04:49:43;4.60;99.90
10968;DHT22;5536;49.602;10.980;2023-12-20T04:52:10;4.60;99.90
10968;DHT22;5536;49.602;10.980;2023-12-20T04:54:38;4.60;99.90
10968;DHT22;5536;49.602;10.980;2023-12-20T04:57:07;4.60;99.90
10968;DHT22;5536;49.602;10.980;2023-12-20T04:59:33;4.60;99.90
10968;DHT22;5536;49.602;10.980;2023-12-20T05:02:00;4.60;99.90
10968;DHT22;5536;49.602;10.980;2023-12-20T05:04:27;4.60;99.90
10968;DHT22;5536;49.602;10.980;2023-12-20T05:06:54;4.60;99.90
10968;DHT22;5536;49.602;10.980;2023-12-20T05:09:21;4.60;99.90
10968;DHT22;5536;49.602;10.980;2023-12-20T05:11:50;4.60;99.90
10968;DHT22;5536;49.602;10.980;2023-12-20T05:14:17;4.60;99.90
10968;DHT22;5536;49.602;10.980;2023-12-20T05:16:44;4.60;99.90
10968;DHT22;5536;49.602;10.980;2023-12-20T05:19:11;4.60;99.90
10968;DHT22;5536;49.602;10.980;2023-12-20T05:21:38;4.60;99.90
10968;DHT22;5536;49.602;10.980;2023-12-20T05:24:08;4.60;99.90
10968;DHT22;5536;49.602;10.980;2023-12-20T05:26:35;4.60;99.90
10968;DHT22;5536;49.602;10.980;2023-12-20T05:29:03;4.60;99.90
10968;DHT22;5536;49.602;10.980;2023-12-20T05:31:31;4.60;99.90
10968;DHT22;5536;49.602;10.980;2023-12-20T05:33:58;4.60;99.90
10968;DHT22;5536;49.602;10.980;2023-12-20T05:36:25;4.70;99.90
10968;DHT22;5536;49.602;10.980;2023-12-20T05:38:52;4.60;99.90
10968;DHT22;5536;49.602;10.980;2023-12-20T05:41:19;4.60;99.90
10968;DHT22;5536;49.602;10.980;2023-12-20T05:43:47;4.70;99.90
10968;DHT22;5536;49.602;10.980;2023-12-20T05:46:15;4.70;99.90
10968;DHT22;5536;49.602;10.980;2023-12-20T05:48:43;4.70;99.90
10968;DHT22;5536;49.602;10.980;2023-12-20T05:51:11;4.70;99.90
10968;DHT22;5536;49.602;10.980;2023-12-20T05:53:38;4.70;99.90
10968;DHT22;5536;49.602;10.980;2023-12-20T05:56:06;4.70;99.90
10968;DHT22;5536;49.602;10.980;2023-12-20T05:58:33;4.70;99.90
10968;DHT22;5536;49.602;10.980;2023-12-20T06:01:00;4.70;99.90
10968;DHT22;5536;49.602;10.980;2023-12-20T06:03:28;4.70;99.90
10968;DHT22;5536;49.602;10.980;2023-12-20T06:05:55;4.70;99.90
10968;DHT22;5536;49.602;10.980;2023-12-20T06:08:22;4.70;99.90
10968;DHT22;5536;49.602;10.980;2023-12-20T06:10:49;4.70;99.90
10968;DHT22;5536;49.602;10.980;2023-12-20T06:13:17;4.70;99.90
10968;DHT22;5536;49.602;10.980;2023-12-20T06:15:44;4.70;99.90
10968;DHT22;5536;49.602;10.980;2023-12-20T06:18:11;4.70;99.90
10968;DHT22;5536;49.602;10.980;2023-12-20T06:20:39;4.70;99.90
10968;DHT22;5536;49.602;10.980;2023-12-20T06:23:09;4.70;99.90
10968;DHT22;5536;49.602;10.980;2023-12-20T06:25:36;4.70;99.90
10968;DHT22;5536;49.602;10.980;2023-12-20T06:28:03;4.70;99.90
10968;DHT22;5536;49.602;10.980;2023-12-20T06:30:30;4.70;99.90
10968;DHT22;5536;49.602;10.980;2023-12-20T06:32:58;4.80;99.90
10968;DHT22;5536;49.602;10.980;2023-12-20T06:35:25;4.80;99.90
10968;DHT22;5536;49.602;10.980;2023-12-20T06:37:53;4.80;99.90
10968;DHT22;5536;49.602;10.980;2023-12-20T06:40:20;4.80;99.90
10968;DHT22;5536;49.602;10.980;2023-12-20T06:42:47;4.80;99.90
10968;DHT22;5536;49.602;10.980;2023-12-20T06:45:14;4.80;99.90
10968;DHT22;5536;49.602;10.980;2023-12-20T06:47:41;4.80;99.90
10968;DHT22;5536;49.602;10.980;2023-12-20T06:50:09;4.80;99.90
10968;DHT22;5536;49.602;10.980;2023-12-20T06:52:36;4.90;99.90
10968;DHT22;5536;49.602;10.980;2023-12-20T06:55:05;4.90;99.90
10968;DHT22;5536;49.602;10.980;2023-12-20T06:57:32;4.90;99.90
10968;DHT22;5536;49.602;10.980;2023-12-20T06:59:59;4.80;99.90
10968;DHT22;5536;49.602;10.980;2023-12-20T07:02:26;4.90;99.90
10968;DHT22;5536;49.602;10.980;2023-12-20T07:04:55;4.90;99.90
10968;DHT22;5536;49.602;10.980;2023-12-20T07:07:23;4.80;99.90
10968;DHT22;5536;49.602;10.980;2023-12-20T07:09:50;4.90;99.90
10968;DHT22;5536;49.602;10.980;2023-12-20T07:12:18;4.90;99.90
10968;DHT22;5536;49.602;10.980;2023-12-20T07:14:46;5.00;99.90
10968;DHT22;5536;49.602;10.980;2023-12-20T07:17:14;5.00;99.90
10968;DHT22;5536;49.602;10.980;2023-12-20T07:19:41;5.00;99.90
10968;DHT22;5536;49.602;10.980;2023-12-20T07:22:09;5.00;99.90
10968;DHT22;5536;49.602;10.980;2023-12-20T07:24:36;5.00;99.90
10968;DHT22;5536;49.602;10.980;2023-12-20T07:27:06;5.00;99.90
10968;DHT22;5536;49.602;10.980;2023-12-20T07:29:34;5.00;99.90
10968;DHT22;5536;49.602;10.980;2023-12-20T07:32:01;5.00;99.90
10968;DHT22;5536;49.602;10.980;2023-12-20T07:34:28;5.00;99.90
10968;DHT22;5536;49.602;10.980;2023-12-20T07:36:55;5.00;99.90
10968;DHT22;5536;49.602;10.980;2023-12-20T07:39:22;5.00;99.90
10968;DHT22;5536;49.602;10.980;2023-12-20T07:41:49;5.00;99.90
10968;DHT22;5536;49.602;10.980;2023-12-20T07:44:16;5.00;99.90
10968;DHT22;5536;49.602;10.980;2023-12-20T07:46:45;5.00;99.90
10968;DHT22;5536;49.602;10.980;2023-12-20T07:49:12;5.00;99.90
10968;DHT22;5536;49.602;10.980;2023-12-20T07:51:39;5.00;99.90
10968;DHT22;5536;49.602;10.980;2023-12-20T07:54:06;5.00;99.90
10968;DHT22;5536;49.602;10.980;2023-12-20T07:56:33;5.10;99.90
10968;DHT22;5536;49.602;10.980;2023-12-20T07:59:00;5.10;99.90
10968;DHT22;5536;49.602;10.980;2023-12-20T08:01:28;5.10;99.90
10968;DHT22;5536;49.602;10.980;2023-12-20T08:03:56;5.10;99.90
10968;DHT22;5536;49.602;10.980;2023-12-20T08:06:23;5.10;99.90
10968;DHT22;5536;49.602;10.980;2023-12-20T08:08:50;5.20;99.90
10968;DHT22;5536;49.602;10.980;2023-12-20T08:11:17;5.20;99.90
10968;DHT22;5536;49.602;10.980;2023-12-20T08:13:44;5.20;99.90
10968;DHT22;5536;49.602;10.980;2023-12-20T08:16:11;5.20;99.90
10968;DHT22;5536;49.602;10.980;2023-12-20T08:18:39;5.20;99.90
10968;DHT22;5536;49.602;10.980;2023-12-20T08:21:07;5.20;99.90
10968;DHT22;5536;49.602;10.980;2023-12-20T08:23:34;5.30;99.90
10968;DHT22;5536;49.602;10.980;2023-12-20T08:26:04;5.30;99.90
10968;DHT22;5536;49.602;10.980;2023-12-20T08:28:31;5.30;99.90
10968;DHT22;5536;49.602;10.980;2023-12-20T08:30:58;5.30;99.90
10968;DHT22;5536;49.602;10.980;2023-12-20T08:33:25;5.30;99.90
10968;DHT22;5536;49.602;10.980;2023-12-20T08:35:52;5.20;99.90
10968;DHT22;5536;49.602;10.980;2023-12-20T08:38:21;5.20;99.90
10968;DHT22;5536;49.602;10.980;2023-12-20T08:40:48;5.20;99.90
10968;DHT22;5536;49.602;10.980;2023-12-20T08:43:15;5.20;99.90
10968;DHT22;5536;49.602;10.980;2023-12-20T08:45:42;5.20;99.90
10968;DHT22;5536;49.602;10.980;2023-12-20T08:48:09;5.20;99.90
10968;DHT22;5536;49.602;10.980;2023-12-20T08:50:36;5.20;99.90
10968;DHT22;5536;49.602;10.980;2023-12-20T08:53:03;5.20;99.90
10968;DHT22;5536;49.602;10.980;2023-12-20T08:55:31;5.20;99.90
10968;DHT22;5536;49.602;10.980;2023-12-20T08:57:59;5.20;99.90
10968;DHT22;5536;49.602;10.980;2023-12-20T09:00:26;5.10;99.90
10968;DHT22;5536;49.602;10.980;2023-12-20T09:02:53;5.20;99.90
10968;DHT22;5536;49.602;10.980;2023-12-20T09:05:21;5.20;99.90
10968;DHT22;5536;49.602;10.980;2023-12-20T09:07:48;5.20;99.90
10968;DHT22;5536;49.602;10.980;2023-12-20T09:10:15;5.20;99.90
10968;DHT22;5536;49.602;10.980;2023-12-20T09:12:49;5.30;99.90
10968;DHT22;5536;49.602;10.980;2023-12-20T09:15:16;5.30;99.90
10968;DHT22;5536;49.602;10.980;2023-12-20T09:17:43;5.30;99.90
10968;DHT22;5536;49.602;10.980;2023-12-20T09:20:10;5.30;99.90
10968;DHT22;5536;49.602;10.980;2023-12-20T09:22:39;5.40;99.90
10968;DHT22;5536;49.602;10.980;2023-12-20T09:25:08;5.40;99.90
10968;DHT22;5536;49.602;10.980;2023-12-20T09:27:38;5.50;99.90
10968;DHT22;5536;49.602;10.980;2023-12-20T09:30:07;5.50;99.90
10968;DHT22;5536;49.602;10.980;2023-12-20T09:32:34;5.50;99.90
10968;DHT22;5536;49.602;10.980;2023-12-20T09:35:01;5.50;99.90
10968;DHT22;5536;49.602;10.980;2023-12-20T09:37:28;5.50;99.90
10968;DHT22;5536;49.602;10.980;2023-12-20T09:39:55;5.60;99.90
10968;DHT22;5536;49.602;10.980;2023-12-20T09:42:26;5.60;99.90
10968;DHT22;5536;49.602;10.980;2023-12-20T09:44:55;5.70;99.90
10968;DHT22;5536;49.602;10.980;2023-12-20T09:47:26;5.80;99.90
10968;DHT22;5536;49.602;10.980;2023-12-20T09:49:54;5.80;99.90
10968;DHT22;5536;49.602;10.980;2023-12-20T09:52:22;5.90;99.90
10968;DHT22;5536;49.602;10.980;2023-12-20T09:54:53;5.90;99.90
10968;DHT22;5536;49.602;10.980;2023-12-20T09:57:20;5.90;99.90
10968;DHT22;5536;49.602;10.980;2023-12-20T09:59:47;5.90;99.90
10968;DHT22;5536;49.602;10.980;2023-12-20T10:02:14;5.90;99.90
10968;DHT22;5536;49.602;10.980;2023-12-20T10:04:47;5.90;99.90
10968;DHT22;5536;49.602;10.980;2023-12-20T10:07:15;5.90;99.90
10968;DHT22;5536;49.602;10.980;2023-12-20T10:09:42;5.90;99.90
10968;DHT22;5536;49.602;10.980;2023-12-20T10:12:09;5.90;99.90
10968;DHT22;5536;49.602;10.980;2023-12-20T10:14:37;6.00;99.90
10968;DHT22;5536;49.602;10.980;2023-12-20T10:17:06;6.00;99.90
10968;DHT22;5536;49.602;10.980;2023-12-20T10:19:33;6.00;99.90
10968;DHT22;5536;49.602;10.980;2023-12-20T10:22:04;6.10;99.90
10968;DHT22;5536;49.602;10.980;2023-12-20T10:24:31;6.00;99.90
10968;DHT22;5536;49.602;10.980;2023-12-20T10:27:02;6.00;99.90
10968;DHT22;5536;49.602;10.980;2023-12-20T10:32:22;6.00;99.90
10968;DHT22;5536;49.602;10.980;2023-12-20T10:34:49;5.90;99.90
10968;DHT22;5536;49.602;10.980;2023-12-20T10:37:18;5.90;99.90
10968;DHT22;5536;49.602;10.980;2023-12-20T10:39:49;5.90;99.90
10968;DHT22;5536;49.602;10.980;2023-12-20T10:42:17;5.90;99.90
10968;DHT22;5536;49.602;10.980;2023-12-20T10:44:46;6.00;99.90
10968;DHT22;5536;49.602;10.980;2023-12-20T10:47:13;6.00;99.90
10968;DHT22;5536;49.602;10.980;2023-12-20T10:49:41;6.00;99.90
10968;DHT22;5536;49.602;10.980;2023-12-20T10:52:09;6.10;99.90
10968;DHT22;5536;49.602;10.980;2023-12-20T10:54:39;6.10;99.90
10968;DHT22;5536;49.602;10.980;2023-12-20T10:57:07;6.10;99.90
10968;DHT22;5536;49.602;10.980;2023-12-20T10:59:36;6.10;99.90
10968;DHT22;5536;49.602;10.980;2023-12-20T11:02:04;6.20;99.90
10968;DHT22;5536;49.602;10.980;2023-12-20T11:04:39;6.30;99.90
10968;DHT22;5536;49.602;10.980;2023-12-20T11:07:16;6.40;99.90
10968;DHT22;5536;49.602;10.980;2023-12-20T11:09:50;6.50;99.90
10968;DHT22;5536;49.602;10.980;2023-12-20T11:12:22;6.40;99.90
10968;DHT22;5536;49.602;10.980;2023-12-20T11:14:54;6.40;99.90
10968;DHT22;5536;49.602;10.980;2023-12-20T11:17:23;6.30;99.90
10968;DHT22;5536;49.602;10.980;2023-12-20T11:20:09;6.30;99.90
10968;DHT22;5536;49.602;10.980;2023-12-20T11:22:50;6.30;99.90
10968;DHT22;5536;49.602;10.980;2023-12-20T11:25:20;6.30;99.90
10968;DHT22;5536;49.602;10.980;2023-12-20T11:28:08;6.30;99.90
10968;DHT22;5536;49.602;10.980;2023-12-20T11:30:42;6.30;99.90
10968;DHT22;5536;49.602;10.980;2023-12-20T11:33:09;6.30;99.90
10968;DHT22;5536;49.602;10.980;2023-12-20T11:35:36;6.30;99.90
10968;DHT22;5536;49.602;10.980;2023-12-20T11:38:07;6.30;99.90
10968;DHT22;5536;49.602;10.980;2023-12-20T11:40:36;6.30;99.90
10968;DHT22;5536;49.602;10.980;2023-12-20T11:43:03;6.30;99.90
10968;DHT22;5536;49.602;10.980;2023-12-20T11:45:31;6.30;99.90
10968;DHT22;5536;49.602;10.980;2023-12-20T11:47:58;6.30;99.90
10968;DHT22;5536;49.602;10.980;2023-12-20T11:50:25;6.40;99.90
10968;DHT22;5536;49.602;10.980;2023-12-20T11:52:54;6.30;99.90
10968;DHT22;5536;49.602;10.980;2023-12-20T11:55:22;6.40;99.90
10968;DHT22;5536;49.602;10.980;2023-12-20T11:57:50;6.40;99.90
10968;DHT22;5536;49.602;10.980;2023-12-20T12:00:19;6.50;99.90
10968;DHT22;5536;49.602;10.980;2023-12-20T12:02:55;6.60;99.90
10968;DHT22;5536;49.602;10.980;2023-12-20T12:05:23;6.60;99.90
10968;DHT22;5536;49.602;10.980;2023-12-20T12:07:50;6.50;99.90
10968;DHT22;5536;49.602;10.980;2023-12-20T12:10:17;6.50;99.90
10968;DHT22;5536;49.602;10.980;2023-12-20T12:12:44;6.50;99.90
10968;DHT22;5536;49.602;10.980;2023-12-20T12:15:12;6.40;99.90
10968;DHT22;5536;49.602;10.980;2023-12-20T12:17:39;6.50;99.90
10968;DHT22;5536;49.602;10.980;2023-12-20T12:20:07;6.70;99.90
10968;DHT22;5536;49.602;10.980;2023-12-20T12:22:35;6.70;99.90
10968;DHT22;5536;49.602;10.980;2023-12-20T12:25:10;6.80;99.90
10968;DHT22;5536;49.602;10.980;2023-12-20T12:27:40;6.70;99.90
10968;DHT22;5536;49.602;10.980;2023-12-20T12:30:07;6.70;99.90
10968;DHT22;5536;49.602;10.980;2023-12-20T12:32:36;6.80;99.90
10968;DHT22;5536;49.602;10.980;2023-12-20T12:35:04;6.80;99.90
10968;DHT22;5536;49.602;10.980;2023-12-20T12:37:34;6.70;99.90
10968;DHT22;5536;49.602;10.980;2023-12-20T12:40:01;6.70;99.90
10968;DHT22;5536;49.602;10.980;2023-12-20T12:42:28;6.60;99.90
10968;DHT22;5536;49.602;10.980;2023-12-20T12:44:55;6.50;99.90
10968;DHT22;5536;49.602;10.980;2023-12-20T12:47:22;6.50;99.90
10968;DHT22;5536;49.602;10.980;2023-12-20T12:49:52;6.60;99.90
10968;DHT22;5536;49.602;10.980;2023-12-20T12:52:19;6.60;99.90
10968;DHT22;5536;49.602;10.980;2023-12-20T12:54:46;6.50;99.90
10968;DHT22;5536;49.602;10.980;2023-12-20T12:57:14;6.60;99.90
10968;DHT22;5536;49.602;10.980;2023-12-20T12:59:41;6.50;99.90
10968;DHT22;5536;49.602;10.980;2023-12-20T13:02:09;6.50;99.90
10968;DHT22;5536;49.602;10.980;2023-12-20T13:04:36;6.50;99.90
10968;DHT22;5536;49.602;10.980;2023-12-20T13:07:05;6.50;99.90
10968;DHT22;5536;49.602;10.980;2023-12-20T13:09:32;6.50;99.90
10968;DHT22;5536;49.602;10.980;2023-12-20T13:11:59;6.50;99.90
10968;DHT22;5536;49.602;10.980;2023-12-20T13:14:29;6.30;99.90
10968;DHT22;5536;49.602;10.980;2023-12-20T13:16:56;6.20;99.90
10968;DHT22;5536;49.602;10.980;2023-12-20T13:19:23;6.00;99.90
10968;DHT22;5536;49.602;10.980;2023-12-20T13:21:50;6.00;99.90
10968;DHT22;5536;49.602;10.980;2023-12-20T13:24:18;5.90;99.90
10968;DHT22;5536;49.602;10.980;2023-12-20T13:26:45;5.90;99.90
10968;DHT22;5536;49.602;10.980;2023-12-20T13:29:12;5.90;99.90
10968;DHT22;5536;49.602;10.980;2023-12-20T13:31:39;5.90;99.90
10968;DHT22;5536;49.602;10.980;2023-12-20T13:34:06;5.90;99.90
10968;DHT22;5536;49.602;10.980;2023-12-20T13:36:33;5.90;99.90
10968;DHT22;5536;49.602;10.980;2023-12-20T13:39:02;5.90;99.90
10968;DHT22;5536;49.602;10.980;2023-12-20T13:41:32;5.90;99.90
10968;DHT22;5536;49.602;10.980;2023-12-20T13:43:59;6.00;99.90
10968;DHT22;5536;49.602;10.980;2023-12-20T13:46:27;5.90;99.90
10968;DHT22;5536;49.602;10.980;2023-12-20T13:48:54;5.90;99.90
10968;DHT22;5536;49.602;10.980;2023-12-20T13:51:21;6.00;99.90
10968;DHT22;5536;49.602;10.980;2023-12-20T13:53:48;5.90;99.90
10968;DHT22;5536;49.602;10.980;2023-12-20T13:56:15;6.00;99.90
10968;DHT22;5536;49.602;10.980;2023-12-20T13:58:46;6.00;99.90
10968;DHT22;5536;49.602;10.980;2023-12-20T14:01:13;6.00;99.90
10968;DHT22;5536;49.602;10.980;2023-12-20T14:03:40;6.00;99.90
10968;DHT22;5536;49.602;10.980;2023-12-20T14:06:07;6.00;99.90
10968;DHT22;5536;49.602;10.980;2023-12-20T14:08:34;6.00;99.90
10968;DHT22;5536;49.602;10.980;2023-12-20T14:11:03;6.00;99.90
10968;DHT22;5536;49.602;10.980;2023-12-20T14:13:30;6.00;99.90
10968;DHT22;5536;49.602;10.980;2023-12-20T14:15:58;6.00;99.90
10968;DHT22;5536;49.602;10.980;2023-12-20T14:18:26;5.90;99.90
10968;DHT22;5536;49.602;10.980;2023-12-20T14:20:53;5.90;99.90
10968;DHT22;5536;49.602;10.980;2023-12-20T14:23:20;5.90;99.90
10968;DHT22;5536;49.602;10.980;2023-12-20T14:25:48;5.90;99.90
10968;DHT22;5536;49.602;10.980;2023-12-20T14:28:15;5.90;99.90
10968;DHT22;5536;49.602;10.980;2023-12-20T14:30:43;5.90;99.90
10968;DHT22;5536;49.602;10.980;2023-12-20T14:33:11;5.90;99.90
10968;DHT22;5536;49.602;10.980;2023-12-20T14:35:39;5.90;99.90
10968;DHT22;5536;49.602;10.980;2023-12-20T14:38:08;5.90;99.90
10968;DHT22;5536;49.602;10.980;2023-12-20T14:40:35;6.00;99.90
10968;DHT22;5536;49.602;10.980;2023-12-20T14:43:02;5.90;99.90
10968;DHT22;5536;49.602;10.980;2023-12-20T14:45:29;5.90;99.90
10968;DHT22;5536;49.602;10.980;2023-12-20T14:47:56;5.90;99.90
10968;DHT22;5536;49.602;10.980;2023-12-20T14:50:25;5.90;99.90
10968;DHT22;5536;49.602;10.980;2023-12-20T14:52:52;5.80;99.90
10968;DHT22;5536;49.602;10.980;2023-12-20T14:55:21;5.80;99.90
10968;DHT22;5536;49.602;10.980;2023-12-20T14:57:48;5.80;99.90
10968;DHT22;5536;49.602;10.980;2023-12-20T15:00:15;5.70;99.90
10968;DHT22;5536;49.602;10.980;2023-12-20T15:02:43;5.70;99.90
10968;DHT22;5536;49.602;10.980;2023-12-20T15:05:10;5.70;99.90
10968;DHT22;5536;49.602;10.980;2023-12-20T15:07:39;5.70;99.90
10968;DHT22;5536;49.602;10.980;2023-12-20T15:10:07;5.70;99.90
10968;DHT22;5536;49.602;10.980;2023-12-20T15:12:34;5.70;99.90
10968;DHT22;5536;49.602;10.980;2023-12-20T15:15:01;5.60;99.90
10968;DHT22;5536;49.602;10.980;2023-12-20T15:17:30;5.60;99.90
10968;DHT22;5536;49.602;10.980;2023-12-20T15:19:57;5.60;99.90
10968;DHT22;5536;49.602;10.980;2023-12-20T15:22:24;5.60;99.90
10968;DHT22;5536;49.602;10.980;2023-12-20T15:24:53;5.60;99.90
10968;DHT22;5536;49.602;10.980;2023-12-20T15:27:21;5.60;99.90
10968;DHT22;5536;49.602;10.980;2023-12-20T15:29:47;5.70;99.90
10968;DHT22;5536;49.602;10.980;2023-12-20T15:32:15;5.60;99.90
10968;DHT22;5536;49.602;10.980;2023-12-20T15:34:44;5.60;99.90
10968;DHT22;5536;49.602;10.980;2023-12-20T15:37:11;5.60;99.90
10968;DHT22;5536;49.602;10.980;2023-12-20T15:39:38;5.60;99.90
10968;DHT22;5536;49.602;10.980;2023-12-20T15:42:06;5.60;99.90
10968;DHT22;5536;49.602;10.980;2023-12-20T15:44:33;5.60;99.90
10968;DHT22;5536;49.602;10.980;2023-12-20T15:47:00;5.60;99.90
10968;DHT22;5536;49.602;10.980;2023-12-20T15:49:27;5.60;99.90
10968;DHT22;5536;49.602;10.980;2023-12-20T15:51:54;5.60;99.90
10968;DHT22;5536;49.602;10.980;2023-12-20T15:54:21;5.60;99.90